Time;durP1;ratioP1;P1;durP2;ratioP2;P2;SDS_P1;SDS_P2;PMS_P1;PMS_P2;Temp;Humidity;BMP_temperature;BMP_pressure;BME280_temperature;BME280_humidity;BME280_pressure;Samples;Min_cycle;Max_cycle;Signal;HPM_P1;HPM_P2
2023/12/03 00:00:50;;;;;;;;;;;20.60;36.00;;;;;;4975846;28;19938;-54
2023/12/03 00:03:17;;;;;;;;;;;20.60;36.00;;;;;;4975391;28;20049;-47
2023/12/03 00:05:45;;;;;;;;;;;20.60;36.00;;;;;;4975595;28;19936;-47
2023/12/03 00:08:12;;;;;;;;;;;20.60;36.00;;;;;;4975617;28;20028;-49
2023/12/03 00:10:39;;;;;;;;;;;20.60;36.10;;;;;;4974884;28;19961;-47
2023/12/03 00:13:06;;;;;;;;;;;20.60;36.10;;;;;;4975225;28;19926;-47
2023/12/03 00:15:33;;;;;;;;;;;20.60;36.10;;;;;;4975363;28;19961;-48
2023/12/03 00:18:00;;;;;;;;;;;20.60;36.00;;;;;;4975098;28;19936;-46
2023/12/03 00:20:27;;;;;;;;;;;20.60;36.00;;;;;;4974974;28;20387;-50
2023/12/03 00:22:54;;;;;;;;;;;20.70;36.10;;;;;;4975008;28;19972;-49
2023/12/03 00:25:21;;;;;;;;;;;20.60;36.60;;;;;;4975434;28;20215;-48
2023/12/03 00:27:49;;;;;;;;;;;20.60;36.10;;;;;;4975355;28;19972;-48
2023/12/03 00:30:16;;;;;;;;;;;20.60;36.10;;;;;;4975175;28;19926;-49
2023/12/03 00:32:43;;;;;;;;;;;20.60;36.10;;;;;;4975035;28;19930;-47
2023/12/03 00:35:11;;;;;;;;;;;20.60;36.10;;;;;;4974041;28;19926;-46
2023/12/03 00:37:38;;;;;;;;;;;20.60;36.20;;;;;;4990582;28;19930;-46
2023/12/03 00:40:05;;;;;;;;;;;20.60;36.10;;;;;;4993652;28;19961;-46
2023/12/03 00:42:32;;;;;;;;;;;20.60;36.10;;;;;;4993326;28;19926;-49
2023/12/03 00:45:00;;;;;;;;;;;20.60;36.20;;;;;;4976745;28;19938;-46
2023/12/03 00:47:27;;;;;;;;;;;20.60;36.20;;;;;;4974248;28;19973;-46
2023/12/03 00:49:54;;;;;;;;;;;20.60;36.20;;;;;;4973867;28;20035;-47
2023/12/03 00:52:21;;;;;;;;;;;20.60;36.20;;;;;;4973864;28;19927;-45
2023/12/03 00:54:49;;;;;;;;;;;20.60;36.20;;;;;;4973895;28;19930;-53
2023/12/03 00:57:16;;;;;;;;;;;20.50;36.10;;;;;;4974302;28;19926;-51
2023/12/03 00:59:43;;;;;;;;;;;20.50;36.10;;;;;;4973765;28;19974;-52
2023/12/03 01:02:10;;;;;;;;;;;20.50;36.20;;;;;;4974023;28;20046;-51
2023/12/03 01:04:37;;;;;;;;;;;20.60;36.20;;;;;;4974081;28;19926;-52
2023/12/03 01:07:04;;;;;;;;;;;20.60;36.20;;;;;;4974094;28;19970;-52
2023/12/03 01:09:31;;;;;;;;;;;20.60;36.20;;;;;;4973916;28;19984;-51
2023/12/03 01:11:59;;;;;;;;;;;20.50;36.10;;;;;;4973574;28;19977;-51
2023/12/03 01:14:26;;;;;;;;;;;20.60;36.10;;;;;;4973514;28;20290;-53
2023/12/03 01:16:53;;;;;;;;;;;20.50;36.60;;;;;;4973637;28;19930;-49
2023/12/03 01:19:20;;;;;;;;;;;20.50;36.00;;;;;;4973447;28;19930;-50
2023/12/03 01:21:47;;;;;;;;;;;20.60;36.10;;;;;;4973891;28;20338;-51
2023/12/03 01:24:14;;;;;;;;;;;20.60;36.00;;;;;;4976726;28;20012;-47
2023/12/03 01:26:41;;;;;;;;;;;20.60;36.00;;;;;;4976962;28;19926;-50
2023/12/03 01:29:09;;;;;;;;;;;20.50;35.90;;;;;;4976945;28;19932;-48
2023/12/03 01:31:36;;;;;;;;;;;20.50;36.00;;;;;;4976830;28;20025;-54
2023/12/03 01:34:03;;;;;;;;;;;20.50;35.90;;;;;;4977075;28;19933;-47
2023/12/03 01:36:30;;;;;;;;;;;20.50;35.90;;;;;;4977329;28;20048;-53
2023/12/03 01:38:58;;;;;;;;;;;20.50;35.90;;;;;;4975597;28;19926;-48
2023/12/03 01:41:25;;;;;;;;;;;20.50;35.80;;;;;;4907779;28;2025939;-50
2023/12/03 01:43:53;;;;;;;;;;;20.50;35.80;;;;;;4977794;28;19926;-49
2023/12/03 01:46:23;;;;;;;;;;;20.50;35.80;;;;;;4978008;28;19930;-52
2023/12/03 01:48:50;;;;;;;;;;;20.50;35.80;;;;;;4978255;28;20328;-48
2023/12/03 01:51:18;;;;;;;;;;;20.50;35.70;;;;;;4978108;28;20343;-48
2023/12/03 01:53:45;;;;;;;;;;;20.50;35.70;;;;;;4977717;28;19933;-48
2023/12/03 01:56:12;;;;;;;;;;;20.50;35.70;;;;;;4978039;28;19930;-49
2023/12/03 01:58:40;;;;;;;;;;;20.50;35.70;;;;;;4977779;28;19926;-48
2023/12/03 02:01:08;;;;;;;;;;;20.50;35.70;;;;;;4977632;28;20025;-51
2023/12/03 02:03:35;;;;;;;;;;;20.50;35.60;;;;;;4977577;28;19926;-49
2023/12/03 02:06:04;;;;;;;;;;;20.50;35.60;;;;;;4977519;28;20375;-48
2023/12/03 02:08:32;;;;;;;;;;;20.50;35.60;;;;;;4977566;28;20383;-47
2023/12/03 02:11:00;;;;;;;;;;;20.50;35.60;;;;;;4977575;28;19930;-48
2023/12/03 02:13:29;;;;;;;;;;;20.50;35.50;;;;;;4977536;28;19926;-49
2023/12/03 02:15:56;;;;;;;;;;;20.50;35.50;;;;;;4977655;28;19973;-51
2023/12/03 02:18:24;;;;;;;;;;;20.50;35.50;;;;;;4977576;28;19926;-52
2023/12/03 02:20:51;;;;;;;;;;;20.50;35.50;;;;;;4977667;28;19929;-49
2023/12/03 02:23:19;;;;;;;;;;;20.50;35.50;;;;;;4977225;28;20021;-48
2023/12/03 02:25:47;;;;;;;;;;;20.50;35.60;;;;;;4977430;28;19926;-53
2023/12/03 02:28:14;;;;;;;;;;;20.50;35.60;;;;;;4977162;28;20438;-50
2023/12/03 02:30:41;;;;;;;;;;;20.50;35.50;;;;;;4977497;28;19964;-49
2023/12/03 02:33:08;;;;;;;;;;;20.40;35.50;;;;;;4976367;28;19965;-48
2023/12/03 02:35:36;;;;;;;;;;;20.50;35.50;;;;;;4977052;28;20388;-55
2023/12/03 02:38:03;;;;;;;;;;;20.40;35.40;;;;;;4991933;28;20020;-54
2023/12/03 02:40:33;;;;;;;;;;;20.50;35.40;;;;;;4977253;28;19930;-54
2023/12/03 02:43:00;;;;;;;;;;;20.40;35.40;;;;;;4977175;28;19930;-54
2023/12/03 02:45:27;;;;;;;;;;;20.40;35.40;;;;;;4977379;28;20340;-51
2023/12/03 02:47:54;;;;;;;;;;;20.40;35.40;;;;;;4976846;28;20406;-51
2023/12/03 02:50:21;;;;;;;;;;;20.40;35.30;;;;;;4977141;28;19930;-54
2023/12/03 02:52:48;;;;;;;;;;;20.40;35.40;;;;;;4976831;28;19984;-49
2023/12/03 02:55:15;;;;;;;;;;;20.40;35.40;;;;;;4976778;28;19933;-52
2023/12/03 02:57:42;;;;;;;;;;;20.40;35.30;;;;;;4976917;28;19926;-53
2023/12/03 03:00:10;;;;;;;;;;;20.40;35.30;;;;;;4976544;28;19926;-46
2023/12/03 03:02:37;;;;;;;;;;;20.40;35.30;;;;;;4976614;28;19926;-49
2023/12/03 03:05:04;;;;;;;;;;;20.40;35.30;;;;;;4976353;28;19927;-51
2023/12/03 03:07:31;;;;;;;;;;;20.40;35.30;;;;;;4976585;28;19929;-48
2023/12/03 03:09:58;;;;;;;;;;;20.40;35.30;;;;;;4976553;28;19926;-48
2023/12/03 03:12:26;;;;;;;;;;;20.40;35.30;;;;;;4976381;28;20391;-52
2023/12/03 03:14:53;;;;;;;;;;;20.40;35.30;;;;;;4976839;28;19933;-48
2023/12/03 03:17:20;;;;;;;;;;;20.40;35.20;;;;;;4976765;28;19930;-49
2023/12/03 03:19:47;;;;;;;;;;;20.40;35.20;;;;;;4976290;28;19926;-50
2023/12/03 03:22:14;;;;;;;;;;;20.40;35.30;;;;;;4975280;28;20130;-51
2023/12/03 03:24:41;;;;;;;;;;;20.40;35.20;;;;;;4976606;28;19977;-48
2023/12/03 03:27:08;;;;;;;;;;;20.40;35.20;;;;;;4976594;28;19926;-48
2023/12/03 03:29:36;;;;;;;;;;;20.40;35.20;;;;;;4976486;28;20323;-54
2023/12/03 03:32:03;;;;;;;;;;;20.40;35.20;;;;;;4976244;28;19926;-49
2023/12/03 03:34:30;;;;;;;;;;;20.30;35.20;;;;;;4976330;28;19926;-48
2023/12/03 03:36:57;;;;;;;;;;;20.40;35.20;;;;;;4976417;28;19926;-51
2023/12/03 03:39:24;;;;;;;;;;;20.40;35.20;;;;;;4975802;28;19980;-48
2023/12/03 03:41:51;;;;;;;;;;;20.30;35.20;;;;;;4976124;28;19930;-48
2023/12/03 03:44:18;;;;;;;;;;;20.40;35.30;;;;;;4975747;28;19958;-52
2023/12/03 03:46:45;;;;;;;;;;;20.40;35.30;;;;;;4975519;28;19960;-51
2023/12/03 03:49:12;;;;;;;;;;;20.40;35.30;;;;;;4975719;28;20379;-51
2023/12/03 03:51:40;;;;;;;;;;;20.40;35.30;;;;;;4975786;28;20311;-56
2023/12/03 03:54:07;;;;;;;;;;;20.40;35.20;;;;;;4975891;28;20437;-49
2023/12/03 03:56:34;;;;;;;;;;;20.40;35.30;;;;;;4975789;28;19926;-49
2023/12/03 03:59:01;;;;;;;;;;;20.40;35.30;;;;;;4975806;28;19926;-48
2023/12/03 04:01:28;;;;;;;;;;;20.40;35.30;;;;;;4975363;28;20435;-51
2023/12/03 04:03:55;;;;;;;;;;;20.40;35.30;;;;;;4974057;28;19926;-52
2023/12/03 04:06:22;;;;;;;;;;;20.40;35.30;;;;;;4975551;28;20288;-47
2023/12/03 04:08:49;;;;;;;;;;;20.30;35.30;;;;;;4975634;28;20382;-52
2023/12/03 04:11:16;;;;;;;;;;;20.40;35.30;;;;;;4975356;28;19937;-53
2023/12/03 04:13:43;;;;;;;;;;;20.30;35.30;;;;;;4975172;28;19925;-51
2023/12/03 04:16:19;;;;;;;;;;;20.30;35.30;;;;;;4975605;28;20020;-54
2023/12/03 04:18:46;;;;;;;;;;;20.30;35.30;;;;;;4974946;28;19930;-55
2023/12/03 04:21:15;;;;;;;;;;;20.40;35.40;;;;;;4975071;28;19926;-54
2023/12/03 04:23:43;;;;;;;;;;;20.30;35.30;;;;;;4975059;28;19941;-53
2023/12/03 04:26:10;;;;;;;;;;;20.40;35.40;;;;;;4975339;28;20016;-54
2023/12/03 04:28:39;;;;;;;;;;;20.30;35.30;;;;;;4975070;28;19961;-55
2023/12/03 04:31:15;;;;;;;;;;;20.30;35.30;;;;;;4975226;28;19926;-51
2023/12/03 04:33:42;;;;;;;;;;;20.30;35.30;;;;;;4974861;28;19934;-52
2023/12/03 04:36:09;;;;;;;;;;;20.30;35.30;;;;;;4974963;28;19973;-53
2023/12/03 04:38:36;;;;;;;;;;;20.30;35.20;;;;;;4974793;28;20017;-51
2023/12/03 04:41:04;;;;;;;;;;;20.40;35.00;;;;;;4974517;28;20447;-52
2023/12/03 04:43:31;;;;;;;;;;;20.30;34.70;;;;;;4975030;28;20347;-49
2023/12/03 04:46:01;;;;;;;;;;;20.40;34.50;;;;;;4975294;28;19965;-50
2023/12/03 04:48:29;;;;;;;;;;;20.40;34.40;;;;;;4974733;28;19968;-51
2023/12/03 04:50:56;;;;;;;;;;;20.40;34.30;;;;;;4975070;28;19926;-49
2023/12/03 04:53:23;;;;;;;;;;;20.40;34.30;;;;;;4974948;28;20338;-48
2023/12/03 04:55:50;;;;;;;;;;;20.40;34.50;;;;;;4975111;28;19926;-52
2023/12/03 04:58:17;;;;;;;;;;;20.40;34.60;;;;;;4974578;28;19965;-49
2023/12/03 05:00:45;;;;;;;;;;;20.40;34.60;;;;;;4974914;28;19957;-48
2023/12/03 05:03:12;;;;;;;;;;;20.40;34.60;;;;;;4974815;28;19926;-50
2023/12/03 05:05:39;;;;;;;;;;;20.30;34.50;;;;;;4974677;28;19933;-48
2023/12/03 05:08:06;;;;;;;;;;;20.30;34.40;;;;;;4974575;28;19961;-52
2023/12/03 05:10:33;;;;;;;;;;;20.30;34.40;;;;;;4974577;28;19965;-50
2023/12/03 05:13:00;;;;;;;;;;;20.30;34.40;;;;;;4974523;28;19926;-49
2023/12/03 05:15:27;;;;;;;;;;;20.30;34.30;;;;;;4974808;28;19949;-47
2023/12/03 05:17:55;;;;;;;;;;;20.30;34.30;;;;;;4974786;28;19934;-48
2023/12/03 05:20:22;;;;;;;;;;;20.30;34.20;;;;;;4974376;28;20454;-47
2023/12/03 05:22:51;;;;;;;;;;;20.40;34.30;;;;;;4974546;28;20293;-48
2023/12/03 05:25:18;;;;;;;;;;;20.40;34.20;;;;;;4974755;28;19926;-50
2023/12/03 05:27:45;;;;;;;;;;;20.40;34.20;;;;;;4974368;28;20453;-52
2023/12/03 05:30:14;;;;;;;;;;;20.40;34.20;;;;;;4974117;28;20399;-49
2023/12/03 05:32:41;;;;;;;;;;;20.40;34.20;;;;;;4974402;28;20458;-54
2023/12/03 05:35:09;;;;;;;;;;;20.40;34.20;;;;;;4974649;28;19926;-53
2023/12/03 05:37:38;;;;;;;;;;;20.40;34.10;;;;;;4974238;28;19981;-51
2023/12/03 05:40:08;;;;;;;;;;;20.50;34.10;;;;;;4957265;28;19982;-50
2023/12/03 05:42:35;;;;;;;;;;;20.50;33.90;;;;;;4974171;28;20016;-49
2023/12/03 05:45:03;;;;;;;;;;;20.40;33.80;;;;;;4974190;28;20022;-48
2023/12/03 05:47:31;;;;;;;;;;;20.50;33.90;;;;;;4974098;28;20380;-50
2023/12/03 05:49:59;;;;;;;;;;;20.50;33.80;;;;;;4974461;28;19933;-55
2023/12/03 05:52:27;;;;;;;;;;;20.50;33.80;;;;;;4974056;28;20422;-49
2023/12/03 05:54:54;;;;;;;;;;;20.50;33.70;;;;;;4974405;28;19980;-48
2023/12/03 05:57:21;;;;;;;;;;;20.50;33.70;;;;;;4974397;28;20268;-53
2023/12/03 05:59:49;;;;;;;;;;;20.50;33.60;;;;;;4974506;28;20339;-55
2023/12/03 06:02:17;;;;;;;;;;;20.50;34.20;;;;;;4974286;28;19934;-55
2023/12/03 06:04:44;;;;;;;;;;;20.50;33.60;;;;;;4974207;28;19930;-53
2023/12/03 06:07:11;;;;;;;;;;;20.50;33.60;;;;;;4974144;28;19933;-54
2023/12/03 06:09:38;;;;;;;;;;;20.50;33.50;;;;;;4976368;28;20406;-49
2023/12/03 06:12:06;;;;;;;;;;;20.50;33.40;;;;;;4973474;28;20269;-54
2023/12/03 06:14:33;;;;;;;;;;;20.50;33.40;;;;;;4961899;28;19926;-51
2023/12/03 06:17:00;;;;;;;;;;;20.60;33.40;;;;;;4972365;28;19973;-52
2023/12/03 06:19:27;;;;;;;;;;;20.60;33.30;;;;;;4977410;28;19926;-48
2023/12/03 06:21:54;;;;;;;;;;;20.60;33.30;;;;;;4977393;28;19926;-48
2023/12/03 06:24:23;;;;;;;;;;;20.60;33.20;;;;;;4977084;28;20434;-49
2023/12/03 06:26:50;;;;;;;;;;;20.60;33.20;;;;;;4977514;28;19926;-53
2023/12/03 06:29:17;;;;;;;;;;;20.60;33.20;;;;;;4977564;28;19926;-51
2023/12/03 06:31:44;;;;;;;;;;;20.60;33.10;;;;;;4976111;28;19993;-47
2023/12/03 06:34:12;;;;;;;;;;;20.60;33.00;;;;;;4976754;28;19926;-49
2023/12/03 06:36:39;;;;;;;;;;;20.60;33.00;;;;;;4977096;28;20017;-50
2023/12/03 06:39:06;;;;;;;;;;;20.60;32.90;;;;;;4977128;28;19981;-55
2023/12/03 06:41:33;;;;;;;;;;;20.70;32.90;;;;;;4977004;28;20046;-48
2023/12/03 06:44:00;;;;;;;;;;;20.70;33.50;;;;;;4977108;28;19926;-51
2023/12/03 06:46:27;;;;;;;;;;;20.70;32.90;;;;;;4977303;28;20016;-52
2023/12/03 06:48:54;;;;;;;;;;;20.70;32.80;;;;;;4977123;28;19926;-53
2023/12/03 06:51:21;;;;;;;;;;;20.70;32.80;;;;;;4977026;28;19973;-50
2023/12/03 06:53:48;;;;;;;;;;;20.70;32.80;;;;;;4976883;28;19926;-50
2023/12/03 06:56:16;;;;;;;;;;;20.70;32.80;;;;;;4976818;28;19930;-49
2023/12/03 06:58:43;;;;;;;;;;;20.80;32.80;;;;;;4976978;28;19934;-53
2023/12/03 07:01:11;;;;;;;;;;;20.70;32.60;;;;;;4977067;28;19933;-51
2023/12/03 07:03:38;;;;;;;;;;;20.80;32.70;;;;;;4976848;28;19973;-51
2023/12/03 07:06:06;;;;;;;;;;;20.80;32.60;;;;;;4976586;28;19969;-49
2023/12/03 07:08:33;;;;;;;;;;;20.80;32.50;;;;;;4977001;28;19952;-50
2023/12/03 07:11:00;;;;;;;;;;;20.80;32.50;;;;;;4976958;28;19926;-50
2023/12/03 07:13:27;;;;;;;;;;;20.80;32.30;;;;;;4976746;28;19934;-54
2023/12/03 07:15:54;;;;;;;;;;;20.80;32.30;;;;;;4976704;28;19951;-48
2023/12/03 07:18:21;;;;;;;;;;;20.90;32.30;;;;;;4976368;28;19930;-52
2023/12/03 07:20:48;;;;;;;;;;;20.90;32.30;;;;;;4975486;28;19933;-47
2023/12/03 07:23:15;;;;;;;;;;;20.90;32.20;;;;;;4976359;28;19933;-49
2023/12/03 07:25:42;;;;;;;;;;;20.90;32.20;;;;;;4976399;28;19930;-48
2023/12/03 07:28:09;;;;;;;;;;;20.90;32.10;;;;;;4976125;28;19926;-51
2023/12/03 07:30:36;;;;;;;;;;;20.90;32.10;;;;;;4976652;28;19957;-47
2023/12/03 07:33:04;;;;;;;;;;;21.00;32.10;;;;;;4976175;28;20020;-50
2023/12/03 07:35:31;;;;;;;;;;;21.00;32.10;;;;;;4976152;28;20404;-47
2023/12/03 07:37:59;;;;;;;;;;;21.00;32.00;;;;;;4976160;28;19926;-53
2023/12/03 07:40:26;;;;;;;;;;;21.00;32.00;;;;;;4975894;28;19930;-53
2023/12/03 07:42:53;;;;;;;;;;;21.00;32.00;;;;;;4975959;28;19969;-53
2023/12/03 07:45:20;;;;;;;;;;;21.00;31.90;;;;;;4976177;28;19926;-53
2023/12/03 07:47:49;;;;;;;;;;;21.10;31.90;;;;;;4976039;28;20291;-51
2023/12/03 07:50:16;;;;;;;;;;;21.00;31.90;;;;;;4976020;28;19930;-51
2023/12/03 07:52:43;;;;;;;;;;;21.10;31.90;;;;;;4975485;28;19930;-53
2023/12/03 07:55:10;;;;;;;;;;;21.10;31.80;;;;;;4976063;28;19933;-52
2023/12/03 07:57:37;;;;;;;;;;;21.10;31.80;;;;;;4975843;28;19926;-47
2023/12/03 08:00:05;;;;;;;;;;;21.20;31.90;;;;;;4975877;28;19941;-49
2023/12/03 08:02:32;;;;;;;;;;;21.10;31.80;;;;;;4975487;28;19929;-49
2023/12/03 08:04:59;;;;;;;;;;;21.20;31.80;;;;;;4975485;28;20360;-52
2023/12/03 08:07:26;;;;;;;;;;;21.20;31.70;;;;;;4975321;28;20443;-48
2023/12/03 08:09:54;;;;;;;;;;;21.20;31.70;;;;;;4975522;28;20491;-52
2023/12/03 08:12:21;;;;;;;;;;;21.30;31.80;;;;;;4975773;28;20304;-52
2023/12/03 08:14:48;;;;;;;;;;;21.30;31.80;;;;;;4975334;28;19970;-50
2023/12/03 08:17:16;;;;;;;;;;;21.30;31.70;;;;;;4975446;28;20402;-51
2023/12/03 08:19:43;;;;;;;;;;;21.30;32.30;;;;;;4974731;28;20391;-49
2023/12/03 08:22:11;;;;;;;;;;;21.30;31.70;;;;;;4975122;28;19977;-52
2023/12/03 08:24:38;;;;;;;;;;;21.40;31.70;;;;;;4975051;28;19932;-51
2023/12/03 08:27:06;;;;;;;;;;;21.40;31.70;;;;;;4975530;28;20295;-47
2023/12/03 08:29:33;;;;;;;;;;;21.40;31.70;;;;;;4975288;28;19926;-51
2023/12/03 08:32:03;;;;;;;;;;;21.50;31.70;;;;;;4975026;28;19930;-53
2023/12/03 08:34:30;;;;;;;;;;;21.50;31.60;;;;;;4974602;28;19950;-53
2023/12/03 08:36:58;;;;;;;;;;;21.60;31.70;;;;;;4974611;28;19934;-49
2023/12/03 08:39:25;;;;;;;;;;;21.60;31.60;;;;;;4975096;28;19933;-53
2023/12/03 08:41:52;;;;;;;;;;;21.60;31.60;;;;;;4975254;28;20376;-51
2023/12/03 08:44:19;;;;;;;;;;;21.70;31.50;;;;;;4974843;28;19930;-52
2023/12/03 08:46:49;;;;;;;;;;;21.70;31.50;;;;;;4975090;28;20021;-53
2023/12/03 08:49:16;;;;;;;;;;;21.70;32.00;;;;;;4974702;28;19932;-52
2023/12/03 08:51:43;;;;;;;;;;;21.70;32.00;;;;;;4957495;28;19927;-53
2023/12/03 08:54:13;;;;;;;;;;;21.80;31.40;;;;;;4975020;28;19926;-50
2023/12/03 08:56:41;;;;;;;;;;;21.80;31.30;;;;;;4974349;28;19933;-51
2023/12/03 08:59:11;;;;;;;;;;;21.80;31.30;;;;;;4974360;28;19926;-53
2023/12/03 09:01:40;;;;;;;;;;;21.80;31.30;;;;;;4975038;28;19929;-51
2023/12/03 09:04:07;;;;;;;;;;;21.80;31.30;;;;;;4974787;28;19935;-52
2023/12/03 09:06:34;;;;;;;;;;;21.80;31.20;;;;;;4974850;28;19930;-54
2023/12/03 09:09:01;;;;;;;;;;;21.80;31.20;;;;;;4974617;28;19926;-51
2023/12/03 09:11:28;;;;;;;;;;;21.90;31.10;;;;;;4974910;28;19934;-56
2023/12/03 09:13:55;;;;;;;;;;;21.90;31.10;;;;;;4974291;28;20447;-56
2023/12/03 09:16:22;;;;;;;;;;;21.90;31.10;;;;;;4974702;28;19996;-57
2023/12/03 09:18:50;;;;;;;;;;;21.90;31.00;;;;;;4974600;28;19926;-54
2023/12/03 09:21:18;;;;;;;;;;;21.90;31.00;;;;;;4974383;28;20017;-54
2023/12/03 09:23:45;;;;;;;;;;;21.90;30.90;;;;;;4974439;28;20362;-54
2023/12/03 09:26:12;;;;;;;;;;;21.90;30.90;;;;;;4974280;28;20382;-55
2023/12/03 09:28:42;;;;;;;;;;;22.00;30.90;;;;;;4974738;28;19930;-55
2023/12/03 09:31:10;;;;;;;;;;;22.00;30.90;;;;;;4974594;28;20453;-62
2023/12/03 09:33:37;;;;;;;;;;;22.00;30.80;;;;;;4974490;28;19996;-53
2023/12/03 09:36:05;;;;;;;;;;;22.00;30.80;;;;;;4974793;28;19958;-53
2023/12/03 09:38:32;;;;;;;;;;;22.00;30.70;;;;;;4974819;28;19930;-58
2023/12/03 09:41:00;;;;;;;;;;;22.00;30.70;;;;;;4974429;28;19934;-55
2023/12/03 09:43:28;;;;;;;;;;;22.10;30.70;;;;;;4974924;28;19926;-53
2023/12/03 09:45:55;;;;;;;;;;;22.10;30.70;;;;;;4978419;28;20020;-57
2023/12/03 09:48:24;;;;;;;;;;;22.10;30.70;;;;;;4978268;28;19926;-57
2023/12/03 09:50:53;;;;;;;;;;;22.10;30.60;;;;;;4978008;28;20427;-66
2023/12/03 09:53:22;;;;;;;;;;;22.10;30.50;;;;;;4978014;28;19969;-56
2023/12/03 09:55:50;;;;;;;;;;;22.10;30.50;;;;;;4977813;28;19973;-57
2023/12/03 09:58:19;;;;;;;;;;;22.20;30.50;;;;;;4977841;28;19926;-58
2023/12/03 10:00:46;;;;;;;;;;;22.20;30.50;;;;;;4978304;28;19926;-50
2023/12/03 10:03:13;;;;;;;;;;;22.20;30.50;;;;;;4977597;28;19926;-47
2023/12/03 10:05:44;;;;;;;;;;;22.30;30.40;;;;;;4977818;28;19926;-46
2023/12/03 10:08:13;;;;;;;;;;;22.30;30.40;;;;;;4977963;28;20414;-47
2023/12/03 10:10:43;;;;;;;;;;;22.30;30.30;;;;;;4977824;28;20396;-49
2023/12/03 10:13:12;;;;;;;;;;;22.30;30.30;;;;;;4977763;28;19939;-47
2023/12/03 10:15:39;;;;;;;;;;;22.40;30.20;;;;;;4978117;28;20325;-48
2023/12/03 10:18:07;;;;;;;;;;;22.40;30.20;;;;;;4977783;28;19927;-48
2023/12/03 10:20:34;;;;;;;;;;;22.40;30.10;;;;;;4977874;28;19933;-47
2023/12/03 10:23:02;;;;;;;;;;;22.40;30.10;;;;;;4977340;28;19984;-47
2023/12/03 10:25:34;;;;;;;;;;;22.40;30.00;;;;;;4976357;28;19973;-49
2023/12/03 10:28:03;;;;;;;;;;;22.40;30.00;;;;;;4977287;28;20442;-46
2023/12/03 10:30:30;;;;;;;;;;;22.40;30.00;;;;;;4977568;28;19926;-47
2023/12/03 10:33:04;;;;;;;;;;;22.50;30.00;;;;;;4977569;28;19926;-49
2023/12/03 10:35:32;;;;;;;;;;;22.50;30.00;;;;;;4977237;28;19926;-50
2023/12/03 10:37:59;;;;;;;;;;;22.50;30.00;;;;;;4977030;28;20371;-47
2023/12/03 10:40:32;;;;;;;;;;;22.50;30.00;;;;;;4960173;28;20422;-47
2023/12/03 10:43:00;;;;;;;;;;;22.50;30.00;;;;;;4974523;28;19934;-49
2023/12/03 10:45:28;;;;;;;;;;;22.50;29.90;;;;;;4973813;28;19930;-47
2023/12/03 10:47:58;;;;;;;;;;;22.50;29.90;;;;;;4975502;28;20016;-48
2023/12/03 10:50:27;;;;;;;;;;;22.50;29.90;;;;;;4975570;28;20008;-47
2023/12/03 10:52:57;;;;;;;;;;;22.60;29.90;;;;;;4974957;28;19926;-49
2023/12/03 10:55:24;;;;;;;;;;;22.60;29.90;;;;;;4976900;28;19926;-50
2023/12/03 10:57:58;;;;;;;;;;;22.60;29.80;;;;;;4977065;28;19930;-48
2023/12/03 11:00:30;;;;;;;;;;;22.60;29.70;;;;;;4976548;28;20005;-48
2023/12/03 11:03:17;;;;;;;;;;;22.60;29.80;;;;;;4976628;28;19932;-49
2023/12/03 11:05:50;;;;;;;;;;;22.60;29.70;;;;;;4976986;28;19973;-52
2023/12/03 11:08:19;;;;;;;;;;;22.60;29.70;;;;;;4976691;28;19926;-50
2023/12/03 11:10:46;;;;;;;;;;;22.60;29.70;;;;;;4976927;28;19978;-52
2023/12/03 11:13:16;;;;;;;;;;;22.70;29.60;;;;;;4976669;28;19926;-53
2023/12/03 11:15:44;;;;;;;;;;;22.70;29.60;;;;;;4976198;28;19957;-54
2023/12/03 11:18:12;;;;;;;;;;;22.70;29.60;;;;;;4976351;28;20005;-54
2023/12/03 11:20:42;;;;;;;;;;;22.70;29.60;;;;;;4976552;28;20292;-52
2023/12/03 11:23:30;;;;;;;;;;;22.70;29.60;;;;;;4959626;28;19989;-53
2023/12/03 11:26:02;;;;;;;;;;;22.70;29.50;;;;;;4976195;28;19926;-48
2023/12/03 11:28:31;;;;;;;;;;;22.70;29.50;;;;;;4975978;28;19926;-52
2023/12/03 11:30:58;;;;;;;;;;;22.70;29.50;;;;;;4976465;28;19926;-53
2023/12/03 11:33:27;;;;;;;;;;;22.70;29.50;;;;;;4975987;28;19926;-54
2023/12/03 11:35:58;;;;;;;;;;;22.70;29.50;;;;;;4976506;28;19933;-51
2023/12/03 11:38:30;;;;;;;;;;;22.70;29.50;;;;;;4975428;28;19926;-47
2023/12/03 11:41:00;;;;;;;;;;;22.70;29.50;;;;;;4976090;28;20016;-48
2023/12/03 11:43:30;;;;;;;;;;;22.70;29.40;;;;;;4975805;28;19932;-55
2023/12/03 11:45:58;;;;;;;;;;;22.80;29.40;;;;;;4975928;28;20380;-49
2023/12/03 11:48:27;;;;;;;;;;;22.80;29.40;;;;;;4958968;28;19930;-47
2023/12/03 11:50:57;;;;;;;;;;;22.80;29.30;;;;;;4958563;28;20010;-56
2023/12/03 11:53:33;;;;;;;;;;;22.80;29.30;;;;;;4975297;28;20283;-54
2023/12/03 11:56:01;;;;;;;;;;;22.80;29.30;;;;;;4975596;28;19933;-51
2023/12/03 11:58:28;;;;;;;;;;;22.80;29.20;;;;;;4975662;28;20279;-49
2023/12/03 12:00:55;;;;;;;;;;;22.80;29.20;;;;;;4975587;28;19926;-51
2023/12/03 12:03:27;;;;;;;;;;;22.80;29.20;;;;;;4975437;28;19934;-49
2023/12/03 12:05:55;;;;;;;;;;;22.80;29.20;;;;;;4974834;28;19926;-49
2023/12/03 12:08:23;;;;;;;;;;;22.80;29.20;;;;;;4975727;28;19926;-49
2023/12/03 12:10:51;;;;;;;;;;;22.80;29.20;;;;;;4975521;28;19926;-48
2023/12/03 12:13:21;;;;;;;;;;;22.80;29.20;;;;;;4974935;28;20371;-50
2023/12/03 12:15:53;;;;;;;;;;;22.80;29.10;;;;;;4975290;28;19927;-49
2023/12/03 12:18:23;;;;;;;;;;;22.80;29.10;;;;;;4974851;28;19926;-49
2023/12/03 12:21:05;;;;;;;;;;;22.80;29.10;;;;;;4975240;28;19926;-52
2023/12/03 12:23:32;;;;;;;;;;;22.80;29.10;;;;;;4975103;28;20414;-50
2023/12/03 12:26:00;;;;;;;;;;;22.80;29.10;;;;;;4975478;28;19926;-53
2023/12/03 12:28:27;;;;;;;;;;;22.80;29.10;;;;;;4975150;28;19930;-48
2023/12/03 12:30:57;;;;;;;;;;;22.80;29.10;;;;;;4975221;28;19977;-50
2023/12/03 12:33:25;;;;;;;;;;;22.80;29.10;;;;;;4974340;28;20307;-48
2023/12/03 12:35:53;;;;;;;;;;;22.80;29.10;;;;;;4977735;28;20306;-49
2023/12/03 12:38:20;;;;;;;;;;;22.80;29.10;;;;;;4994162;28;20065;-48
2023/12/03 12:40:52;;;;;;;;;;;22.80;29.10;;;;;;4994255;28;19930;-53
2023/12/03 12:43:23;;;;;;;;;;;22.80;29.10;;;;;;4994606;28;19925;-49
2023/12/03 12:46:08;;;;;;;;;;;22.80;29.10;;;;;;4994244;28;20016;-52
2023/12/03 12:48:35;;;;;;;;;;;22.80;29.10;;;;;;4994115;28;19972;-51
2023/12/03 12:51:18;;;;;;;;;;;22.80;29.00;;;;;;4978332;28;20054;-52
2023/12/03 12:53:52;;;;;;;;;;;22.80;29.10;;;;;;4979780;28;20387;-54
2023/12/03 12:56:19;;;;;;;;;;;22.80;29.00;;;;;;4970300;28;19941;-55
2023/12/03 12:58:46;;;;;;;;;;;22.90;29.10;;;;;;4973678;28;20306;-52
2023/12/03 13:01:16;;;;;;;;;;;22.80;29.00;;;;;;4955740;29;20339;-51
2023/12/03 13:03:43;;;;;;;;;;;22.90;29.00;;;;;;4955577;28;20294;-51
2023/12/03 13:06:13;;;;;;;;;;;22.90;29.00;;;;;;4955576;29;19958;-53
2023/12/03 13:08:41;;;;;;;;;;;22.90;29.00;;;;;;4955425;28;20037;-54
2023/12/03 13:11:08;;;;;;;;;;;22.90;28.90;;;;;;4955398;29;19926;-52
2023/12/03 13:13:35;;;;;;;;;;;22.90;28.90;;;;;;4955476;28;20331;-52
2023/12/03 13:16:03;;;;;;;;;;;22.90;28.90;;;;;;4955128;29;20387;-49
2023/12/03 13:18:30;;;;;;;;;;;22.90;28.80;;;;;;4976074;28;20310;-51
2023/12/03 13:20:57;;;;;;;;;;;22.80;28.80;;;;;;4978480;28;20376;-48
2023/12/03 13:23:29;;;;;;;;;;;22.80;28.80;;;;;;4978165;28;19952;-55
2023/12/03 13:25:56;;;;;;;;;;;22.80;28.80;;;;;;4978752;28;19926;-48
2023/12/03 13:28:23;;;;;;;;;;;22.80;28.80;;;;;;4977152;28;20016;-54
2023/12/03 13:30:51;;;;;;;;;;;22.80;28.80;;;;;;4978772;28;19933;-48
2023/12/03 13:33:20;;;;;;;;;;;22.70;28.70;;;;;;4977274;28;20017;-53
2023/12/03 13:35:47;;;;;;;;;;;22.80;28.70;;;;;;4978676;28;19937;-53
2023/12/03 13:38:15;;;;;;;;;;;22.80;28.80;;;;;;4978450;28;19973;-48
2023/12/03 13:40:42;;;;;;;;;;;22.70;28.70;;;;;;4978297;28;19926;-52
2023/12/03 13:43:19;;;;;;;;;;;22.70;28.70;;;;;;4978416;28;19973;-50
2023/12/03 13:45:48;;;;;;;;;;;22.70;28.70;;;;;;4978343;28;19926;-48
2023/12/03 13:48:15;;;;;;;;;;;22.70;28.60;;;;;;4978015;28;20430;-51
2023/12/03 13:50:45;;;;;;;;;;;22.70;28.60;;;;;;4977805;28;19934;-52
2023/12/03 13:53:14;;;;;;;;;;;22.70;28.60;;;;;;4977900;28;19973;-52
2023/12/03 13:55:41;;;;;;;;;;;22.70;28.60;;;;;;4977453;28;19926;-49
2023/12/03 13:58:08;;;;;;;;;;;22.70;28.60;;;;;;4985138;28;20294;-48
2023/12/03 14:00:35;;;;;;;;;;;22.70;28.60;;;;;;4973344;28;20021;-51
2023/12/03 14:03:05;;;;;;;;;;;22.70;28.60;;;;;;4978776;28;19969;-50
2023/12/03 14:05:36;;;;;;;;;;;22.70;28.60;;;;;;4992387;28;20287;-50
2023/12/03 14:08:04;;;;;;;;;;;22.60;28.50;;;;;;4996600;28;19932;-48
2023/12/03 14:10:31;;;;;;;;;;;22.70;28.60;;;;;;4991263;28;20036;-50
2023/12/03 14:12:59;;;;;;;;;;;22.60;28.60;;;;;;4969589;28;19967;-48
2023/12/03 14:15:27;;;;;;;;;;;22.70;28.70;;;;;;4994834;28;19932;-48
2023/12/03 14:17:54;;;;;;;;;;;22.60;28.80;;;;;;4996980;28;19926;-50
2023/12/03 14:20:22;;;;;;;;;;;22.60;28.80;;;;;;4994951;28;20283;-48